Darstellungsparameter: Aktuell verwendete Einstellungen:
Skalierung der Graphiken ... ?
xyx+y,   Skalierungsfaktor:      Skalierung: Modus: x, Faktor: 1
Darstellungszeitraum ... ?
Vom - - bis: - -   Zeitraum: 20.05.2015 - 20.05.2015
Min/Max/Avg-Anzeige ... ?
Zeige MMA aktuell
Zeige MMA Monat
Zeige MMA alles
Zeige --A aktuell
Zeige --A Monat
Zeige --A alles
Keine MMA-Anzeige
MMA:
Minimum Maximum Average (ber die Originaldaten)
MMA-Basis: 20.05.2015 - 20.05.2015
Quicknavigation für Darstellung... ?
Tage:      1T, 2T, 3T, 5T -1T -2T -3T -5T +1T +2T +3T +5T
Wochen: 1W, 2W, 3W -1W -2W -3W +1W +2W +3W
Monate: 1M, 3M, 6M -1M -3M -6M +1M +3M +6M
Jahre:    1J, 3J, 5J, 10J -1J -3J -5J -10J +1J +3J +5J +10J
Nutze für die Darstellung ... ?
Originaldaten oder Mittelwerte auf ...
Stundenbasis Tagesbasis Wochenbasis
Monatsbasis Jahresbasis      Datenbasis: Original-Daten
Darstellen als:
Statistik (Auto) Statistik J:M      Darstellung:
Zur Graphik,    zurück zur Übersicht aller Sensoren.
 
Tabellarische Datenbersicht: ?
 
Sensor: Nr:Datum:Temp:Abs-Feuchte:Windchill:Wind:
Aussen-T/F 1 20-05-2015 00:00:00 10.7 C 7.17 g/m*3 10.7 C 0 km/h
2 20-05-2015 00:05:00 10.6 C 7.22 g/m*3 10.6 C 0 km/h
3 20-05-2015 00:10:00 10.5 C 7.27 g/m*3 10.5 C 0 km/h
4 20-05-2015 00:15:00 10.4 C 7.23 g/m*3 10.4 C 0 km/h
5 20-05-2015 00:20:00 10.4 C 7.23 g/m*3 10.4 C 0 km/h
6 20-05-2015 00:25:00 10.4 C 7.32 g/m*3 10.4 C 0 km/h
7 20-05-2015 00:30:00 10.4 C 7.42 g/m*3 10.4 C 1.6 km/h
8 20-05-2015 00:35:00 10.4 C 7.52 g/m*3 10.4 C 0 km/h
9 20-05-2015 00:40:00 10.4 C 7.52 g/m*3 10.4 C 0 km/h
10 20-05-2015 00:45:00 10.3 C 7.47 g/m*3 10.3 C 1.6 km/h
11 20-05-2015 00:50:00 10.3 C 7.37 g/m*3 10.3 C 0 km/h
12 20-05-2015 00:55:00 10.4 C 7.52 g/m*3 10.4 C 0 km/h
13 20-05-2015 01:00:00 10.4 C 7.52 g/m*3 10.4 C 0 km/h
14 20-05-2015 01:05:00 10.4 C 7.32 g/m*3 10.4 C 1.6 km/h
15 20-05-2015 01:10:00 10.5 C 7.37 g/m*3 10.5 C 1.6 km/h
16 20-05-2015 01:15:00 10.6 C 7.22 g/m*3 10.6 C 3.2 km/h
17 20-05-2015 01:20:00 10.7 C 7.27 g/m*3 10.7 C 4.8 km/h
18 20-05-2015 01:25:00 10.7 C 7.27 g/m*3 10.7 C 4.8 km/h
19 20-05-2015 01:30:00 10.7 C 7.37 g/m*3 10.7 C 0 km/h
20 20-05-2015 01:35:00 10.7 C 7.27 g/m*3 10.7 C 0 km/h
21 20-05-2015 01:40:00 10.7 C 7.37 g/m*3 10.7 C 0 km/h
22 20-05-2015 01:45:00 10.7 C 7.37 g/m*3 10.7 C 3.2 km/h
23 20-05-2015 01:50:00 10.7 C 7.46 g/m*3 10.7 C 0 km/h
24 20-05-2015 01:55:00 10.6 C 7.42 g/m*3 10.6 C 3.2 km/h
25 20-05-2015 02:00:00 10.6 C 7.42 g/m*3 10.6 C 4.8 km/h
Sensor: Nr:Datum:Temp:Abs-Feuchte:Windchill:Wind:
Aussen-T/F 26 20-05-2015 02:05:00 10.6 C 7.52 g/m*3 10.6 C 1.6 km/h
27 20-05-2015 02:10:00 10.6 C 7.52 g/m*3 10.6 C 1.6 km/h
28 20-05-2015 02:15:00 10.6 C 7.52 g/m*3 10.6 C 1.6 km/h
29 20-05-2015 02:20:00 10.5 C 7.57 g/m*3 10.5 C 4.8 km/h
30 20-05-2015 02:25:00 10.4 C 7.71 g/m*3 10.4 C 1.6 km/h
31 20-05-2015 02:30:00 10.3 C 7.57 g/m*3 10.3 C 1.6 km/h
32 20-05-2015 02:35:00 10.3 C 7.57 g/m*3 10.3 C 1.6 km/h
33 20-05-2015 02:40:00 10.2 C 7.52 g/m*3 10.2 C 1.6 km/h
34 20-05-2015 02:45:00 10.2 C 7.52 g/m*3 10.2 C 3.2 km/h
35 20-05-2015 02:50:00 10.2 C 7.52 g/m*3 10.2 C 1.6 km/h
36 20-05-2015 02:55:00 10.2 C 7.52 g/m*3 10.2 C 4.8 km/h
37 20-05-2015 03:00:00 10.2 C 7.52 g/m*3 10.2 C 0 km/h
38 20-05-2015 03:05:00 10.2 C 7.61 g/m*3 10.2 C 3.2 km/h
39 20-05-2015 03:10:00 10.2 C 7.71 g/m*3 10.2 C 0 km/h
40 20-05-2015 03:15:00 10.1 C 7.85 g/m*3 10.1 C 0 km/h
41 20-05-2015 03:20:00 9.9 C 7.84 g/m*3 9.9 C 1.6 km/h
42 20-05-2015 03:25:00 9.7 C 7.74 g/m*3 9.7 C 1.6 km/h
43 20-05-2015 03:30:00 9.6 C 7.79 g/m*3 9.6 C 0 km/h
44 20-05-2015 03:35:00 9.5 C 7.74 g/m*3 9.5 C 0 km/h
45 20-05-2015 03:40:00 9.4 C 7.69 g/m*3 9.4 C 0 km/h
46 20-05-2015 03:45:00 9.4 C 7.69 g/m*3 9.4 C 0 km/h
47 20-05-2015 03:50:00 9.4 C 7.78 g/m*3 9.4 C 0 km/h
48 20-05-2015 03:55:00 9.3 C 7.64 g/m*3 9.3 C 0 km/h
49 20-05-2015 04:00:00 9.4 C 7.69 g/m*3 9.4 C 0 km/h
50 20-05-2015 04:05:00 9.4 C 7.69 g/m*3 9.4 C 0 km/h
Sensor: Nr:Datum:Temp:Abs-Feuchte:Windchill:Wind:
Aussen-T/F 51 20-05-2015 04:10:00 9.3 C 7.64 g/m*3 9.3 C 0 km/h
52 20-05-2015 04:15:00 9.3 C 7.73 g/m*3 9.3 C 0 km/h
53 20-05-2015 04:20:00 9.3 C 7.73 g/m*3 9.3 C 0 km/h
54 20-05-2015 04:25:00 9.2 C 7.68 g/m*3 9.2 C 0 km/h
55 20-05-2015 04:30:00 9.2 C 7.68 g/m*3 9.2 C 0 km/h
56 20-05-2015 04:35:00 9.2 C 7.68 g/m*3 9.2 C 0 km/h
57 20-05-2015 04:40:00 9.1 C 7.63 g/m*3 9.1 C 0 km/h
58 20-05-2015 04:45:00 9.1 C 7.72 g/m*3 9.1 C 0 km/h
59 20-05-2015 04:50:00 9.1 C 7.72 g/m*3 9.1 C 0 km/h
60 20-05-2015 04:55:00 9 C 7.76 g/m*3 9 C 1.6 km/h
61 20-05-2015 05:00:00 8.9 C 7.71 g/m*3 8.9 C 0 km/h
62 20-05-2015 05:05:00 8.8 C 7.66 g/m*3 8.8 C 1.6 km/h
63 20-05-2015 05:10:00 8.7 C 7.61 g/m*3 8.7 C 0 km/h
64 20-05-2015 05:15:00 8.7 C 7.61 g/m*3 8.7 C 1.6 km/h
65 20-05-2015 05:20:00 8.7 C 7.61 g/m*3 8.7 C 1.6 km/h
66 20-05-2015 05:25:00 8.7 C 7.61 g/m*3 8.7 C 1.6 km/h
67 20-05-2015 05:30:00 8.7 C 7.61 g/m*3 8.7 C 1.6 km/h
68 20-05-2015 05:35:00 8.8 C 7.57 g/m*3 8.8 C 1.6 km/h
69 20-05-2015 05:40:00 8.8 C 7.57 g/m*3 8.8 C 1.6 km/h
70 20-05-2015 05:45:00 8.9 C 7.53 g/m*3 8.9 C 1.6 km/h
71 20-05-2015 05:50:00 9.1 C 7.54 g/m*3 7.61 C 9.7 km/h
72 20-05-2015 05:55:00 9.1 C 7.54 g/m*3 7.61 C 9.7 km/h
73 20-05-2015 06:00:00 9.2 C 7.5 g/m*3 9.2 C 1.6 km/h
74 20-05-2015 06:05:00 9.2 C 7.59 g/m*3 9.2 C 0 km/h
75 20-05-2015 06:10:00 9.3 C 7.73 g/m*3 9.3 C 1.6 km/h
Sensor: Nr:Datum:Temp:Abs-Feuchte:Windchill:Wind:
Aussen-T/F 76 20-05-2015 06:15:00 9.2 C 7.68 g/m*3 9.2 C 0 km/h
77 20-05-2015 06:20:00 9.2 C 7.68 g/m*3 9.2 C 0 km/h
78 20-05-2015 06:25:00 9.2 C 7.68 g/m*3 9.2 C 0 km/h
79 20-05-2015 06:30:00 9.2 C 7.68 g/m*3 9.2 C 0 km/h
80 20-05-2015 06:35:00 9.2 C 7.68 g/m*3 9.2 C 0 km/h
81 20-05-2015 06:40:00 9.2 C 7.68 g/m*3 9.2 C 0 km/h
82 20-05-2015 06:45:00 9.2 C 7.68 g/m*3 9.2 C 0 km/h
83 20-05-2015 06:50:00 9.2 C 7.59 g/m*3 9.2 C 0 km/h
84 20-05-2015 06:55:00 9.3 C 7.73 g/m*3 9.3 C 0 km/h
85 20-05-2015 07:00:00 9.3 C 7.73 g/m*3 9.3 C 0 km/h
86 20-05-2015 07:05:00 9.4 C 7.69 g/m*3 9.4 C 3.2 km/h
87 20-05-2015 07:10:00 9.4 C 7.69 g/m*3 9.4 C 3.2 km/h
88 20-05-2015 07:15:00 9.5 C 7.74 g/m*3 9.5 C 1.6 km/h
89 20-05-2015 07:20:00 9.6 C 7.69 g/m*3 9.6 C 4.8 km/h
90 20-05-2015 07:25:00 9.7 C 7.74 g/m*3 9.02 C 6.4 km/h
91 20-05-2015 07:30:00 9.8 C 7.79 g/m*3 9.8 C 4.8 km/h
92 20-05-2015 07:35:00 9.8 C 7.7 g/m*3 9.8 C 3.2 km/h
93 20-05-2015 07:40:00 9.9 C 7.66 g/m*3 9.9 C 3.2 km/h
94 20-05-2015 07:45:00 10 C 7.61 g/m*3 9.37 C 6.4 km/h
95 20-05-2015 07:50:00 10 C 7.52 g/m*3 9.37 C 6.4 km/h
96 20-05-2015 07:55:00 10 C 7.61 g/m*3 10 C 4.8 km/h
97 20-05-2015 08:00:00 10 C 7.61 g/m*3 10 C 3.2 km/h
98 20-05-2015 08:05:00 10 C 7.61 g/m*3 10 C 1.6 km/h
99 20-05-2015 08:10:00 10 C 7.71 g/m*3 10 C 4.8 km/h
100 20-05-2015 08:15:00 10 C 7.71 g/m*3 10 C 3.2 km/h
Sensor: Nr:Datum:Temp:Abs-Feuchte:Windchill:Wind:
Aussen-T/F 101 20-05-2015 08:20:00 10.1 C 7.66 g/m*3 10.1 C 4.8 km/h
102 20-05-2015 08:25:00 10 C 7.71 g/m*3 8.99 C 8.1 km/h
103 20-05-2015 08:30:00 10 C 7.61 g/m*3 9.37 C 6.4 km/h
104 20-05-2015 08:35:00 10.1 C 7.56 g/m*3 9.1 C 8.1 km/h
105 20-05-2015 08:40:00 10.2 C 7.52 g/m*3 10.2 C 4.8 km/h
106 20-05-2015 08:45:00 10.3 C 7.47 g/m*3 8.55 C 12.9 km/h
107 20-05-2015 08:50:00 10.4 C 7.42 g/m*3 9.16 C 9.7 km/h
108 20-05-2015 08:55:00 10.5 C 7.37 g/m*3 8.8 C 12.9 km/h
109 20-05-2015 09:00:00 10.5 C 7.37 g/m*3 9.28 C 9.7 km/h
110 20-05-2015 09:05:00 10.5 C 7.47 g/m*3 10.5 C 4.8 km/h
111 20-05-2015 09:10:00 10.6 C 7.52 g/m*3 10.06 C 6.4 km/h
112 20-05-2015 09:15:00 10.7 C 7.56 g/m*3 10.7 C 4.8 km/h
113 20-05-2015 09:20:00 10.8 C 7.41 g/m*3 9.16 C 12.9 km/h
114 20-05-2015 09:25:00 10.9 C 7.46 g/m*3 9.28 C 12.9 km/h
115 20-05-2015 09:30:00 11.1 C 7.66 g/m*3 11.1 C 12.9 km/h
116 20-05-2015 09:35:00 11.2 C 7.4 g/m*3 11.2 C 12.9 km/h
117 20-05-2015 09:40:00 11.3 C 7.45 g/m*3 11.3 C 11.3 km/h
118 20-05-2015 09:45:00 11.4 C 7.39 g/m*3 11.4 C 9.7 km/h
119 20-05-2015 09:50:00 11.6 C 7.48 g/m*3 11.6 C 8.1 km/h
120 20-05-2015 09:55:00 11.8 C 7.47 g/m*3 11.8 C 8.1 km/h
121 20-05-2015 10:00:00 12.2 C 7.45 g/m*3 12.2 C 12.9 km/h
122 20-05-2015 10:05:00 12.4 C 7.1 g/m*3 12.4 C 11.3 km/h
123 20-05-2015 10:10:00 12.7 C 7.12 g/m*3 12.7 C 9.7 km/h
124 20-05-2015 10:15:00 13.2 C 7.12 g/m*3 13.2 C 8.1 km/h
125 20-05-2015 10:20:00 13.4 C 6.97 g/m*3 13.4 C 11.3 km/h
Sensor: Nr:Datum:Temp:Abs-Feuchte:Windchill:Wind:
Aussen-T/F 126 20-05-2015 10:25:00 13.3 C 6.93 g/m*3 13.3 C 16.1 km/h
127 20-05-2015 10:30:00 13.4 C 7.21 g/m*3 13.4 C 12.9 km/h
128 20-05-2015 10:35:00 13.6 C 6.94 g/m*3 13.6 C 6.4 km/h
129 20-05-2015 10:40:00 13.4 C 6.51 g/m*3 13.4 C 11.3 km/h
130 20-05-2015 10:45:00 13.5 C 6.78 g/m*3 13.5 C 4.8 km/h
131 20-05-2015 10:50:00 13.8 C 6.79 g/m*3 13.8 C 11.3 km/h
132 20-05-2015 10:55:00 13.8 C 6.67 g/m*3 13.8 C 8.1 km/h
133 20-05-2015 11:00:00 13.6 C 6.71 g/m*3 13.6 C 11.3 km/h
134 20-05-2015 11:05:00 13.3 C 6.59 g/m*3 13.3 C 9.7 km/h
135 20-05-2015 11:10:00 13.3 C 6.59 g/m*3 13.3 C 9.7 km/h
136 20-05-2015 11:15:00 13.2 C 6.54 g/m*3 13.2 C 9.7 km/h
137 20-05-2015 11:20:00 13.2 C 6.43 g/m*3 13.2 C 12.9 km/h
138 20-05-2015 11:25:00 13.7 C 6.28 g/m*3 13.7 C 9.7 km/h
139 20-05-2015 11:30:00 14 C 6.63 g/m*3 14 C 9.7 km/h
140 20-05-2015 11:35:00 13.9 C 6.71 g/m*3 13.9 C 14.5 km/h
141 20-05-2015 11:40:00 13.6 C 6.59 g/m*3 13.6 C 11.3 km/h
142 20-05-2015 11:45:00 13.3 C 6.59 g/m*3 13.3 C 6.4 km/h
143 20-05-2015 11:50:00 13.3 C 6.35 g/m*3 13.3 C 6.4 km/h
144 20-05-2015 11:55:00 13.3 C 6.59 g/m*3 13.3 C 4.8 km/h
145 20-05-2015 12:00:00 13.8 C 6.67 g/m*3 13.8 C 6.4 km/h
146 20-05-2015 12:05:00 14.2 C 6.35 g/m*3 14.2 C 1.6 km/h
147 20-05-2015 12:10:00 14.2 C 6.47 g/m*3 14.2 C 4.8 km/h
148 20-05-2015 12:15:00 14.2 C 6.35 g/m*3 14.2 C 4.8 km/h
149 20-05-2015 12:20:00 14.4 C 6.43 g/m*3 14.4 C 6.4 km/h
150 20-05-2015 12:25:00 14.9 C 6.37 g/m*3 14.9 C 8.1 km/h
Sensor: Nr:Datum:Temp:Abs-Feuchte:Windchill:Wind:
Aussen-T/F 151 20-05-2015 12:30:00 15.4 C 6.44 g/m*3 15.4 C 11.3 km/h
152 20-05-2015 12:35:00 15.7 C 6.02 g/m*3 15.7 C 12.9 km/h
153 20-05-2015 12:40:00 15.6 C 5.98 g/m*3 15.6 C 8.1 km/h
154 20-05-2015 12:45:00 15.3 C 6.14 g/m*3 15.3 C 6.4 km/h
155 20-05-2015 12:50:00 14.8 C 6.71 g/m*3 14.8 C 14.5 km/h
156 20-05-2015 12:55:00 14.6 C 6.76 g/m*3 14.6 C 8.1 km/h
157 20-05-2015 13:00:00 14.6 C 6.51 g/m*3 14.6 C 11.3 km/h
158 20-05-2015 13:05:00 14.8 C 6.21 g/m*3 14.8 C 6.4 km/h
159 20-05-2015 13:10:00 15.3 C 6.4 g/m*3 15.3 C 4.8 km/h
160 20-05-2015 13:15:00 16 C 6.13 g/m*3 16 C 8.1 km/h
161 20-05-2015 13:20:00 16.2 C 5.79 g/m*3 16.2 C 6.4 km/h
162 20-05-2015 13:25:00 16 C 6.13 g/m*3 16 C 9.7 km/h
163 20-05-2015 13:30:00 16.4 C 6.28 g/m*3 16.4 C 12.9 km/h
164 20-05-2015 13:35:00 16.9 C 6.47 g/m*3 16.9 C 11.3 km/h
165 20-05-2015 13:40:00 17 C 6.08 g/m*3 17 C 16.1 km/h
166 20-05-2015 13:45:00 16.1 C 6.17 g/m*3 16.1 C 24.1 km/h
167 20-05-2015 13:50:00 15.1 C 6.19 g/m*3 15.1 C 14.5 km/h
168 20-05-2015 13:55:00 14.3 C 6.39 g/m*3 14.3 C 17.7 km/h
169 20-05-2015 14:00:00 13.8 C 6.31 g/m*3 13.8 C 11.3 km/h
170 20-05-2015 14:05:00 13.4 C 6.51 g/m*3 13.4 C 11.3 km/h
171 20-05-2015 14:10:00 13.3 C 6.59 g/m*3 13.3 C 9.7 km/h
172 20-05-2015 14:15:00 13.3 C 6.47 g/m*3 13.3 C 14.5 km/h
173 20-05-2015 14:20:00 13.3 C 6.7 g/m*3 13.3 C 8.1 km/h
174 20-05-2015 14:25:00 13.4 C 6.74 g/m*3 13.4 C 6.4 km/h
175 20-05-2015 14:30:00 13.8 C 6.55 g/m*3 13.8 C 8.1 km/h
Sensor: Nr:Datum:Temp:Abs-Feuchte:Windchill:Wind:
Aussen-T/F 176 20-05-2015 14:35:00 14.6 C 6.76 g/m*3 14.6 C 8.1 km/h
177 20-05-2015 14:40:00 15.1 C 6.71 g/m*3 15.1 C 6.4 km/h
178 20-05-2015 14:45:00 15.4 C 7.49 g/m*3 15.4 C 6.4 km/h
179 20-05-2015 14:50:00 15.9 C 7.18 g/m*3 15.9 C 8.1 km/h
180 20-05-2015 14:55:00 16.3 C 7.08 g/m*3 16.3 C 4.8 km/h
181 20-05-2015 15:00:00 16.9 C 7.19 g/m*3 16.9 C 4.8 km/h
182 20-05-2015 15:05:00 17.3 C 7.22 g/m*3 17.3 C 9.7 km/h
183 20-05-2015 15:10:00 16.9 C 7.05 g/m*3 16.9 C 9.7 km/h
184 20-05-2015 15:15:00 16.2 C 7.03 g/m*3 16.2 C 8.1 km/h
185 20-05-2015 15:20:00 15.7 C 7.09 g/m*3 15.7 C 9.7 km/h
186 20-05-2015 15:25:00 15.3 C 7.05 g/m*3 15.3 C 6.4 km/h
187 20-05-2015 15:30:00 15.2 C 7.01 g/m*3 15.2 C 11.3 km/h
188 20-05-2015 15:35:00 15.3 C 7.18 g/m*3 15.3 C 12.9 km/h
189 20-05-2015 15:40:00 15.6 C 7.31 g/m*3 15.6 C 12.9 km/h
190 20-05-2015 15:45:00 15.7 C 7.09 g/m*3 15.7 C 14.5 km/h
191 20-05-2015 15:50:00 15.7 C 7.36 g/m*3 15.7 C 14.5 km/h
192 20-05-2015 15:55:00 15.7 C 6.82 g/m*3 15.7 C 14.5 km/h
193 20-05-2015 16:00:00 15 C 6.92 g/m*3 15 C 12.9 km/h
194 20-05-2015 16:05:00 14.3 C 7.25 g/m*3 14.3 C 9.7 km/h
195 20-05-2015 16:10:00 13.8 C 7.03 g/m*3 13.8 C 6.4 km/h
196 20-05-2015 16:15:00 13.5 C 7.13 g/m*3 13.5 C 4.8 km/h
197 20-05-2015 16:20:00 13.3 C 7.16 g/m*3 13.3 C 8.1 km/h
198 20-05-2015 16:25:00 13.1 C 7.3 g/m*3 13.1 C 8.1 km/h
199 20-05-2015 16:30:00 12.9 C 7.33 g/m*3 12.9 C 6.4 km/h
200 20-05-2015 16:35:00 12.9 C 7.33 g/m*3 12.9 C 4.8 km/h
Sensor: Nr:Datum:Temp:Abs-Feuchte:Windchill:Wind:
Aussen-T/F 201 20-05-2015 17:50:00 14.9 C 8.03 g/m*3 14.9 C 3.2 km/h
202 20-05-2015 17:55:00 15 C 8.08 g/m*3 15 C 3.2 km/h
203 20-05-2015 18:00:00 15 C 8.08 g/m*3 15 C 1.6 km/h
204 20-05-2015 18:20:00 16.3 C 7.49 g/m*3 16.3 C 1.6 km/h
205 20-05-2015 18:25:00 15.8 C 8.08 g/m*3 15.8 C 1.6 km/h
206 20-05-2015 18:30:00 14.9 C 8.03 g/m*3 14.9 C 1.6 km/h
207 20-05-2015 18:35:00 14.1 C 8.25 g/m*3 14.1 C 1.6 km/h
208 20-05-2015 18:40:00 13.4 C 7.21 g/m*3 13.4 C 6.4 km/h
209 20-05-2015 18:45:00 13.6 C 7.41 g/m*3 13.6 C 8.1 km/h
210 20-05-2015 18:50:00 13.6 C 7.06 g/m*3 13.6 C 4.8 km/h
211 20-05-2015 18:55:00 13.6 C 7.41 g/m*3 13.6 C 4.8 km/h
212 20-05-2015 19:00:00 13.5 C 7.72 g/m*3 13.5 C 1.6 km/h
213 20-05-2015 19:05:00 13.4 C 7.67 g/m*3 13.4 C 3.2 km/h
214 20-05-2015 19:10:00 13.6 C 7.77 g/m*3 13.6 C 4.8 km/h
215 20-05-2015 19:15:00 13.6 C 7.77 g/m*3 13.6 C 6.4 km/h
216 20-05-2015 19:20:00 14.2 C 7.57 g/m*3 14.2 C 3.2 km/h
217 20-05-2015 19:25:00 14.3 C 7.37 g/m*3 14.3 C 6.4 km/h
218 20-05-2015 19:30:00 14.4 C 7.42 g/m*3 14.4 C 8.1 km/h
219 20-05-2015 19:35:00 14.4 C 6.92 g/m*3 14.4 C 8.1 km/h
220 20-05-2015 19:40:00 14.4 C 7.05 g/m*3 14.4 C 8.1 km/h
221 20-05-2015 19:45:00 14.3 C 7.13 g/m*3 14.3 C 6.4 km/h
222 20-05-2015 19:50:00 14.2 C 7.2 g/m*3 14.2 C 3.2 km/h
223 20-05-2015 19:55:00 14.2 C 7.33 g/m*3 14.2 C 3.2 km/h
224 20-05-2015 20:00:00 14.1 C 7.28 g/m*3 14.1 C 3.2 km/h
225 20-05-2015 20:05:00 14.1 C 7.4 g/m*3 14.1 C 3.2 km/h
Sensor: Nr:Datum:Temp:Abs-Feuchte:Windchill:Wind:
Aussen-T/F 226 20-05-2015 20:10:00 14.1 C 7.65 g/m*3 14.1 C 3.2 km/h
227 20-05-2015 20:15:00 14 C 7.48 g/m*3 14 C 4.8 km/h
228 20-05-2015 20:20:00 13.8 C 7.51 g/m*3 13.8 C 1.6 km/h
229 20-05-2015 20:25:00 13.7 C 7.58 g/m*3 13.7 C 8.1 km/h
230 20-05-2015 20:30:00 13.6 C 7.53 g/m*3 13.6 C 4.8 km/h
231 20-05-2015 20:35:00 13.4 C 7.44 g/m*3 13.4 C 6.4 km/h
232 20-05-2015 20:40:00 13.2 C 7.46 g/m*3 13.2 C 3.2 km/h
233 20-05-2015 20:45:00 12.9 C 7.55 g/m*3 12.9 C 1.6 km/h
234 20-05-2015 20:50:00 12.7 C 7.24 g/m*3 12.7 C 6.4 km/h
235 20-05-2015 20:55:00 12.4 C 7.32 g/m*3 12.4 C 1.6 km/h
236 20-05-2015 21:00:00 12.1 C 7.08 g/m*3 12.1 C 1.6 km/h
237 20-05-2015 21:05:00 11.7 C 7.01 g/m*3 11.7 C 3.2 km/h
238 20-05-2015 21:10:00 11.6 C 7.17 g/m*3 11.6 C 1.6 km/h
239 20-05-2015 21:15:00 11.3 C 7.34 g/m*3 11.3 C 0 km/h
240 20-05-2015 21:20:00 11 C 7.31 g/m*3 11 C 0 km/h
241 20-05-2015 21:25:00 10.6 C 7.32 g/m*3 10.6 C 0 km/h
242 20-05-2015 21:30:00 10.3 C 7.28 g/m*3 10.3 C 0 km/h
243 20-05-2015 21:35:00 10.2 C 7.42 g/m*3 10.2 C 0 km/h
244 20-05-2015 21:40:00 10 C 7.33 g/m*3 10 C 0 km/h
245 20-05-2015 21:45:00 9.9 C 7.38 g/m*3 9.9 C 1.6 km/h
246 20-05-2015 21:50:00 9.8 C 7.24 g/m*3 9.8 C 0 km/h
247 20-05-2015 21:55:00 9.8 C 7.33 g/m*3 9.8 C 0 km/h
248 20-05-2015 22:00:00 9.6 C 7.24 g/m*3 9.6 C 0 km/h
249 20-05-2015 22:05:00 9.5 C 7.1 g/m*3 9.5 C 0 km/h
250 20-05-2015 22:10:00 9.4 C 7.15 g/m*3 9.4 C 0 km/h
Sensor: Nr:Datum:Temp:Abs-Feuchte:Windchill:Wind:
Aussen-T/F 251 20-05-2015 22:15:00 9.2 C 7.05 g/m*3 9.2 C 0 km/h
252 20-05-2015 22:20:00 9 C 6.96 g/m*3 9 C 0 km/h
253 20-05-2015 22:25:00 8.7 C 6.83 g/m*3 8.7 C 0 km/h
254 20-05-2015 22:30:00 8.6 C 6.87 g/m*3 8.6 C 3.2 km/h
255 20-05-2015 22:35:00 8.6 C 6.96 g/m*3 8.6 C 1.6 km/h
256 20-05-2015 22:40:00 8.6 C 6.96 g/m*3 8.6 C 0 km/h
257 20-05-2015 22:45:00 8.5 C 7 g/m*3 8.5 C 1.6 km/h
258 20-05-2015 22:50:00 8.6 C 7.13 g/m*3 8.6 C 1.6 km/h
259 20-05-2015 22:55:00 8.6 C 7.13 g/m*3 8.6 C 0 km/h
260 20-05-2015 23:00:00 8.5 C 7.09 g/m*3 8.5 C 0 km/h
261 20-05-2015 23:05:00 8.4 C 7.04 g/m*3 8.4 C 3.2 km/h
262 20-05-2015 23:10:00 8.3 C 7.08 g/m*3 8.3 C 1.6 km/h
263 20-05-2015 23:15:00 8.3 C 7.08 g/m*3 8.3 C 0 km/h
264 20-05-2015 23:20:00 8.2 C 6.95 g/m*3 8.2 C 0 km/h
265 20-05-2015 23:25:00 8.2 C 7.12 g/m*3 8.2 C 1.6 km/h
266 20-05-2015 23:30:00 8.2 C 7.03 g/m*3 8.2 C 1.6 km/h
267 20-05-2015 23:35:00 8.1 C 6.99 g/m*3 8.1 C 1.6 km/h
268 20-05-2015 23:40:00 8.1 C 6.99 g/m*3 8.1 C 0 km/h
269 20-05-2015 23:45:00 8.1 C 7.07 g/m*3 8.1 C 0 km/h
270 20-05-2015 23:50:00 7.9 C 6.98 g/m*3 7.9 C 0 km/h
271 20-05-2015 23:55:00 7.8 C 6.94 g/m*3 7.8 C 0 km/h

Legende:
   Min
   Max


Maximal/Minimal-Werte vom 20.05.2015 - 20.05.2015

Sensor Min Max Avg
Temp
(Aussen-T/F)
7.8 °C
20-05-2015  23:55:00
17.3 °C
20-05-2015  15:05:00
11.71 °C
Abs-Feuchte
(Aussen-T/F)
5.79 g/m*3
20-05-2015  13:20:00
8.25 g/m*3
20-05-2015  18:35:00
7.22 g/m*3
Windchill
(Aussen-T/F)
7.61 C
20-05-2015  05:50:00
17.3 C
20-05-2015  15:05:00
11.6 C

Die Daten stammen von einer Davis Vantage Pro 2 Wetter-Station und werden unter Linux mit der Software wview2wettercgi und aufbereitet. Alle Angaben erfolgen ohne Gewähr für ihre Vollständigkeit oder Richtigkeit.
Kontakt: Rainer Krienke krienke@uni-koblenz.de . Meine Webseiten an der Uni Koblenz oder privat.
Version: $Revision: 0.78 $